Guymon, OK

9:28 AM CDT on April 28, 2015 (GMT -0500)
Guymon Municipal | | Change Station
CLOSE
Current Station
Airport
Location: Guymon,
Elevation: 3123 ft
Nearby Weather Stations

Elev 3123 ft 36.68 °N, 101.51 °W | Updated 35 minutes ago

Clear
Clear
48 °F
Feels Like 48 °F
N
15
Wind Variable Wind from North

Today
High -- | Low -- °F
--% Chance of Precip.
Yesterday
High -- | Low -- °F
Precip. -- in
6:55 AM 8:31 PM
Waxing Gibbous, 74% visible
Pressure 30.24 in
Visibility 10.0 miles
Clouds Clear
Dew Point 38 °F
Humidity 68%
Rainfall 0.00 in
Snow Depth Not available.
UV 2 out of 12
Pollen 2.10 out of 12
Air Quality Not available.
Flu Activity Local Activity
METAR KGUY 281353Z AUTO 36013KT 10SM CLR 09/03 A3025 RMK AO2 SLP238 T00890033

More Conditions Fewer Conditions

Pressure 30.24 in
Visibility 10.0 miles
Clouds Clear
Dew Point 38 °F
Humidity 68%
Rainfall 0.00 in
Snow Depth Not available.
UV 2 out of 12
Pollen 2.10 out of 12
Air Quality Not available.
Flu Activity Local Activity
METAR KGUY 281353Z AUTO 36013KT 10SM CLR 09/03 A3025 RMK AO2 SLP238 T00890033

More Conditions Fewer Conditions

10-Day Weather Forecast

Almanac

Astronomy

Apr. 28, 2015 Rise Set
Actual Time
Civil Twilight
Nautical Twilight
Astronomical Twilight
Moon
Length of Visible Light
Length of Day
Tomorrow will be .
, % of the Moon is Illuminated

Today's Extremes

State Highs State Lows

Community

WunderPhotos

Upload Photos

1,817,652 photos uploaded!

WunderBlogs® & News

Nearby

Air Quality

  Air Quality AQ Index Pollutant
Not available.

Snow Depth

Station Depth Elevation

Earthquake Activity

City Distance Mag. Time & Date
Minimum magnitude displayed is 2.5.

Coastal Water Temperatures

Place Temperature

Stations

Nearby Weather Stations

Station Location Temp. Windchill Dew Point Humidity Wind Precip. Elev Updated Type